Time;durP1;ratioP1;P1;durP2;ratioP2;P2;SDS_P1;SDS_P2;PMS_P1;PMS_P2;Temp;Humidity;BMP_temperature;BMP_pressure;BME280_temperature;BME280_humidity;BME280_pressure;Samples;Min_cycle;Max_cycle;Signal;HPM_P1;HPM_P2
2022/02/25 00:00:09;;;;;;;;;;;;;;;;;;5057230;28;20379;-77
2022/02/25 00:02:34;;;;;;;;;;;;;;;;;;5045398;28;19928;-76
2022/02/25 00:05:00;;;;;;;;;;;;;;;;;;5074105;28;19921;-77
2022/02/25 00:07:25;;;;;;;;;;;;;;;;;;5073877;28;19928;-76
2022/02/25 00:09:51;;;;;;;;;;;;;;;;;;5073832;28;19947;-78
2022/02/25 00:12:16;;;;;;;;;;;;;;;;;;5074074;28;19927;-77
2022/02/25 00:14:41;;;;;;;;;;;;;;;;;;5074295;28;19916;-76
2022/02/25 00:17:07;;;;;;;;;;;;;;;;;;5056438;28;20314;-76
2022/02/25 00:19:32;;;;;;;;;;;;;;;;;;5073516;28;20264;-77
2022/02/25 00:21:58;;;;;;;;;;;;;;;;;;5054287;28;20008;-76
2022/02/25 00:24:23;;;;;;;;;;;;;;;;;;5054234;28;19917;-75
2022/02/25 00:26:48;;;;;;;;;;;;;;;;;;5054040;28;19975;-75
2022/02/25 00:29:14;;;;;;;;;;;;;;;;;;5036203;28;19917;-76
2022/02/25 00:31:39;;;;;;;;;;;;;;;;;;5054164;28;19939;-76
2022/02/25 00:34:05;;;;;;;;;;;;;;;;;;5053949;28;19912;-76
2022/02/25 00:36:30;;;;;;;;;;;;;;;;;;5053816;28;19932;-76
2022/02/25 00:38:56;;;;;;;;;;;;;;;;;;5053913;28;19917;-76
2022/02/25 00:41:21;;;;;;;;;;;;;;;;;;5053869;28;20011;-76
2022/02/25 00:43:46;;;;;;;;;;;;;;;;;;5053800;28;19923;-76
2022/02/25 00:46:12;;;;;;;;;;;;;;;;;;5053747;28;19962;-76
2022/02/25 00:48:37;;;;;;;;;;;;;;;;;;5035931;28;19923;-75
2022/02/25 00:51:03;;;;;;;;;;;;;;;;;;5053942;28;19920;-76
2022/02/25 00:53:28;;;;;;;;;;;;;;;;;;5053155;28;19917;-75
2022/02/25 00:55:54;;;;;;;;;;;;;;;;;;5053612;28;19917;-76
2022/02/25 00:58:20;;;;;;;;;;;;;;;;;;5053587;28;20369;-77
2022/02/25 01:00:45;;;;;;;;;;;;;;;;;;5053687;28;20361;-76
2022/02/25 01:03:11;;;;;;;;;;;;;;;;;;5053606;28;19928;-76
2022/02/25 01:05:37;;;;;;;;;;;;;;;;;;5053632;28;19971;-76
2022/02/25 01:08:06;;;;;;;;;;;;;;;;;;5035769;28;20382;-77
2022/02/25 01:10:32;;;;;;;;;;;;;;;;;;5053921;28;19920;-76
2022/02/25 01:12:58;;;;;;;;;;;;;;;;;;5053672;28;20000;-76
2022/02/25 01:15:23;;;;;;;;;;;;;;;;;;5053475;28;19917;-75
2022/02/25 01:17:49;;;;;;;;;;;;;;;;;;5053512;28;19939;-76
2022/02/25 01:20:15;;;;;;;;;;;;;;;;;;5053352;28;19916;-75
2022/02/25 01:22:41;;;;;;;;;;;;;;;;;;5053478;28;19921;-76
2022/02/25 01:25:06;;;;;;;;;;;;;;;;;;5053441;28;19924;-75
2022/02/25 01:27:32;;;;;;;;;;;;;;;;;;5053416;28;19924;-76
2022/02/25 01:29:57;;;;;;;;;;;;;;;;;;5053396;28;20298;-75
2022/02/25 01:32:23;;;;;;;;;;;;;;;;;;5053269;28;20047;-78
2022/02/25 01:34:49;;;;;;;;;;;;;;;;;;5035805;28;19916;-76
2022/02/25 01:37:14;;;;;;;;;;;;;;;;;;5053312;28;20280;-76
2022/02/25 01:39:40;;;;;;;;;;;;;;;;;;5053239;28;19917;-76
2022/02/25 01:42:05;;;;;;;;;;;;;;;;;;5053225;28;19924;-76
2022/02/25 01:44:31;;;;;;;;;;;;;;;;;;5053102;28;19924;-75
2022/02/25 01:47:00;;;;;;;;;;;;;;;;;;5053178;28;19962;-77
2022/02/25 01:49:26;;;;;;;;;;;;;;;;;;5053196;28;19972;-75
2022/02/25 01:51:53;;;;;;;;;;;;;;;;;;5053129;28;19962;-76
2022/02/25 01:54:20;;;;;;;;;;;;;;;;;;5053050;28;19921;-77
2022/02/25 01:56:45;;;;;;;;;;;;;;;;;;5053010;28;19924;-76
2022/02/25 01:59:11;;;;;;;;;;;;;;;;;;5053092;28;19920;-76
2022/02/25 02:01:36;;;;;;;;;;;;;;;;;;5056618;28;19924;-78
2022/02/25 02:04:03;;;;;;;;;;;;;;;;;;5060448;28;20396;-75
2022/02/25 02:06:28;;;;;;;;;;;;;;;;;;5076630;28;20633;-76
2022/02/25 02:08:54;;;;;;;;;;;;;;;;;;5076679;28;19916;-76
2022/02/25 02:11:33;;;;;;;;;;;;;;;;;;5076257;28;19924;-77
2022/02/25 02:13:59;;;;;;;;;;;;;;;;;;5076880;28;20374;-78
2022/02/25 02:16:25;;;;;;;;;;;;;;;;;;5076332;28;19924;-76
2022/02/25 02:18:50;;;;;;;;;;;;;;;;;;5058657;28;19917;-76
2022/02/25 02:21:16;;;;;;;;;;;;;;;;;;5076684;28;20292;-76
2022/02/25 02:23:41;;;;;;;;;;;;;;;;;;5076676;28;19916;-76
2022/02/25 02:26:07;;;;;;;;;;;;;;;;;;5076335;28;20007;-77
2022/02/25 02:28:32;;;;;;;;;;;;;;;;;;5076284;28;19923;-76
2022/02/25 02:30:58;;;;;;;;;;;;;;;;;;5076379;28;20384;-76
2022/02/25 02:33:23;;;;;;;;;;;;;;;;;;5076432;28;19916;-76
2022/02/25 02:35:51;;;;;;;;;;;;;;;;;;5076206;28;19978;-76
2022/02/25 02:38:17;;;;;;;;;;;;;;;;;;5058644;28;19917;-76
2022/02/25 02:40:42;;;;;;;;;;;;;;;;;;5076078;28;20288;-75
2022/02/25 02:43:10;;;;;;;;;;;;;;;;;;5076129;28;20312;-76
2022/02/25 02:45:36;;;;;;;;;;;;;;;;;;5076097;28;19917;-75
2022/02/25 02:48:02;;;;;;;;;;;;;;;;;;5075965;28;20407;-77
2022/02/25 02:50:27;;;;;;;;;;;;;;;;;;5075879;28;19960;-75
2022/02/25 02:52:53;;;;;;;;;;;;;;;;;;5075927;28;19951;-76
2022/02/25 02:55:18;;;;;;;;;;;;;;;;;;5075795;28;19920;-76
2022/02/25 02:57:44;;;;;;;;;;;;;;;;;;5075785;28;20437;-77
2022/02/25 03:00:10;;;;;;;;;;;;;;;;;;5075747;28;19923;-76
2022/02/25 03:02:36;;;;;;;;;;;;;;;;;;5075659;28;19920;-77
2022/02/25 03:05:02;;;;;;;;;;;;;;;;;;5075762;28;19921;-75
2022/02/25 03:07:28;;;;;;;;;;;;;;;;;;5075643;28;20452;-75
2022/02/25 03:09:53;;;;;;;;;;;;;;;;;;5075624;28;19960;-76
2022/02/25 03:12:19;;;;;;;;;;;;;;;;;;5075348;28;19920;-76
2022/02/25 03:14:44;;;;;;;;;;;;;;;;;;5075653;28;20279;-76
2022/02/25 03:17:11;;;;;;;;;;;;;;;;;;5074738;28;20050;-76
2022/02/25 03:19:36;;;;;;;;;;;;;;;;;;5075484;28;20022;-76
2022/02/25 03:22:03;;;;;;;;;;;;;;;;;;5075258;28;19920;-77
2022/02/25 03:24:28;;;;;;;;;;;;;;;;;;5075226;28;19956;-76
2022/02/25 03:26:54;;;;;;;;;;;;;;;;;;5075248;28;20347;-77
2022/02/25 03:29:19;;;;;;;;;;;;;;;;;;5075203;28;20024;-76
2022/02/25 03:31:45;;;;;;;;;;;;;;;;;;5075122;28;19921;-76
2022/02/25 03:34:10;;;;;;;;;;;;;;;;;;5075102;28;19966;-76
2022/02/25 03:36:35;;;;;;;;;;;;;;;;;;5074922;28;19923;-76
2022/02/25 03:39:01;;;;;;;;;;;;;;;;;;5057159;28;19920;-76
2022/02/25 03:41:27;;;;;;;;;;;;;;;;;;5074901;28;19916;-76
2022/02/25 03:43:52;;;;;;;;;;;;;;;;;;5075012;28;20306;-76
2022/02/25 03:46:18;;;;;;;;;;;;;;;;;;5074812;28;19940;-76
2022/02/25 03:48:43;;;;;;;;;;;;;;;;;;5075229;28;19958;-76
2022/02/25 03:51:09;;;;;;;;;;;;;;;;;;5074748;28;20003;-75
2022/02/25 03:53:34;;;;;;;;;;;;;;;;;;5074756;28;20350;-76
2022/02/25 03:56:00;;;;;;;;;;;;;;;;;;5056671;28;19917;-76
2022/02/25 03:58:25;;;;;;;;;;;;;;;;;;5074502;28;19922;-76
2022/02/25 04:00:50;;;;;;;;;;;;;;;;;;5074563;28;20007;-75
2022/02/25 04:03:16;;;;;;;;;;;;;;;;;;5074525;28;19924;-76
2022/02/25 04:05:41;;;;;;;;;;;;;;;;;;5059362;28;19925;-76
2022/02/25 04:08:07;;;;;;;;;;;;;;;;;;5036650;28;19960;-76
2022/02/25 04:10:33;;;;;;;;;;;;;;;;;;5054101;28;19928;-76
2022/02/25 04:12:58;;;;;;;;;;;;;;;;;;5054450;28;19939;-75
2022/02/25 04:15:24;;;;;;;;;;;;;;;;;;5054171;28;20037;-75
2022/02/25 04:17:49;;;;;;;;;;;;;;;;;;5054290;28;19917;-75
2022/02/25 04:20:15;;;;;;;;;;;;;;;;;;5054109;28;20324;-76
2022/02/25 04:22:40;;;;;;;;;;;;;;;;;;5054156;28;19928;-75
2022/02/25 04:25:06;;;;;;;;;;;;;;;;;;5054100;28;19916;-76
2022/02/25 04:27:32;;;;;;;;;;;;;;;;;;5035414;28;20368;-77
2022/02/25 04:29:57;;;;;;;;;;;;;;;;;;5053908;28;19917;-76
2022/02/25 04:32:22;;;;;;;;;;;;;;;;;;5053966;28;19921;-75
2022/02/25 04:34:48;;;;;;;;;;;;;;;;;;5054336;28;19996;-75
2022/02/25 04:37:14;;;;;;;;;;;;;;;;;;5053959;28;19916;-76
2022/02/25 04:39:39;;;;;;;;;;;;;;;;;;5054136;28;19964;-75
2022/02/25 04:42:05;;;;;;;;;;;;;;;;;;5035906;28;19962;-77
2022/02/25 04:44:30;;;;;;;;;;;;;;;;;;5053739;28;20005;-76
2022/02/25 04:46:56;;;;;;;;;;;;;;;;;;5053995;28;19917;-76
2022/02/25 04:49:21;;;;;;;;;;;;;;;;;;5053955;28;19924;-75
2022/02/25 04:51:47;;;;;;;;;;;;;;;;;;5053728;28;20373;-76
2022/02/25 04:54:12;;;;;;;;;;;;;;;;;;5053647;28;20368;-75
2022/02/25 04:56:38;;;;;;;;;;;;;;;;;;5053560;28;19917;-76
2022/02/25 04:59:03;;;;;;;;;;;;;;;;;;5053683;28;20004;-76
2022/02/25 05:01:29;;;;;;;;;;;;;;;;;;5053800;28;19923;-75
2022/02/25 05:03:54;;;;;;;;;;;;;;;;;;5053566;28;19916;-75
2022/02/25 05:06:19;;;;;;;;;;;;;;;;;;5053577;28;19924;-75
2022/02/25 05:08:45;;;;;;;;;;;;;;;;;;5053606;28;19917;-75
2022/02/25 05:11:11;;;;;;;;;;;;;;;;;;5053443;28;20391;-75
2022/02/25 05:13:36;;;;;;;;;;;;;;;;;;5053585;28;19960;-75
2022/02/25 05:21:30;;;;;;;;;;;;;;;;;;5038793;28;19923;-75
2022/02/25 05:23:55;;;;;;;;;;;;;;;;;;5053660;28;20338;-75
2022/02/25 05:26:22;;;;;;;;;;;;;;;;;;5053372;28;19929;-76
2022/02/25 05:28:48;;;;;;;;;;;;;;;;;;5053443;28;19912;-75
2022/02/25 05:31:15;;;;;;;;;;;;;;;;;;5053411;28;19917;-75
2022/02/25 05:33:40;;;;;;;;;;;;;;;;;;5053548;28;20353;-76
2022/02/25 05:36:06;;;;;;;;;;;;;;;;;;5053249;28;19924;-76
2022/02/25 05:38:31;;;;;;;;;;;;;;;;;;5053203;28;19924;-74
2022/02/25 05:40:57;;;;;;;;;;;;;;;;;;5056942;28;19913;-76
2022/02/25 05:43:22;;;;;;;;;;;;;;;;;;5057144;28;19917;-76
2022/02/25 05:45:48;;;;;;;;;;;;;;;;;;5063225;28;20015;-76
2022/02/25 05:48:13;;;;;;;;;;;;;;;;;;5062565;28;19912;-76
2022/02/25 05:50:38;;;;;;;;;;;;;;;;;;5069100;28;20296;-76
2022/02/25 05:53:04;;;;;;;;;;;;;;;;;;5073712;28;20376;-76
2022/02/25 05:55:30;;;;;;;;;;;;;;;;;;5076944;28;19916;-79
2022/02/25 05:57:55;;;;;;;;;;;;;;;;;;5075286;28;19923;-76
2022/02/25 06:00:21;;;;;;;;;;;;;;;;;;5067368;28;20007;-75
2022/02/25 06:02:47;;;;;;;;;;;;;;;;;;5056841;28;19924;-75
2022/02/25 06:05:13;;;;;;;;;;;;;;;;;;5060158;28;19927;-75
2022/02/25 06:07:40;;;;;;;;;;;;;;;;;;5076854;28;19912;-75
2022/02/25 06:10:07;;;;;;;;;;;;;;;;;;5076709;28;19916;-76
2022/02/25 06:12:32;;;;;;;;;;;;;;;;;;5075931;28;19924;-75
2022/02/25 06:14:57;;;;;;;;;;;;;;;;;;5073327;28;19921;-76
2022/02/25 06:17:23;;;;;;;;;;;;;;;;;;5068693;28;19962;-76
2022/02/25 06:19:48;;;;;;;;;;;;;;;;;;5075819;28;19928;-76
2022/02/25 06:22:14;;;;;;;;;;;;;;;;;;5076399;28;20023;-76
2022/02/25 06:24:39;;;;;;;;;;;;;;;;;;5076503;28;19924;-78
2022/02/25 06:27:05;;;;;;;;;;;;;;;;;;5076369;28;19916;-76
2022/02/25 06:29:30;;;;;;;;;;;;;;;;;;5076396;28;20511;-74
2022/02/25 06:31:56;;;;;;;;;;;;;;;;;;5057825;28;19927;-76
2022/02/25 06:34:21;;;;;;;;;;;;;;;;;;5076112;28;20368;-76
2022/02/25 06:36:47;;;;;;;;;;;;;;;;;;5072727;28;20019;-76
2022/02/25 06:39:13;;;;;;;;;;;;;;;;;;5073105;28;19921;-75
2022/02/25 06:41:39;;;;;;;;;;;;;;;;;;5076179;28;20338;-75
2022/02/25 06:44:04;;;;;;;;;;;;;;;;;;5058095;28;19921;-76
2022/02/25 06:46:30;;;;;;;;;;;;;;;;;;5075996;28;20288;-75
2022/02/25 06:48:55;;;;;;;;;;;;;;;;;;5076067;28;19920;-76
2022/02/25 06:51:21;;;;;;;;;;;;;;;;;;5071031;28;19927;-77
2022/02/25 06:53:47;;;;;;;;;;;;;;;;;;5059761;28;19917;-75
2022/02/25 06:56:12;;;;;;;;;;;;;;;;;;5055748;28;19983;-77
2022/02/25 06:58:38;;;;;;;;;;;;;;;;;;5068825;28;19920;-77
2022/02/25 07:01:05;;;;;;;;;;;;;;;;;;5071996;28;20447;-77
2022/02/25 07:03:30;;;;;;;;;;;;;;;;;;5072547;28;19932;-75
2022/02/25 07:05:56;;;;;;;;;;;;;;;;;;5074887;28;20405;-75
2022/02/25 07:08:21;;;;;;;;;;;;;;;;;;5071477;28;19928;-76
2022/02/25 07:10:47;;;;;;;;;;;;;;;;;;5066896;28;20276;-77
2022/02/25 07:13:12;;;;;;;;;;;;;;;;;;5070080;28;20413;-75
2022/02/25 07:15:40;;;;;;;;;;;;;;;;;;5073581;28;19921;-75
2022/02/25 07:18:05;;;;;;;;;;;;;;;;;;5074479;28;19920;-76
2022/02/25 07:20:31;;;;;;;;;;;;;;;;;;5075387;28;19925;-76
2022/02/25 07:22:56;;;;;;;;;;;;;;;;;;5068913;28;19959;-78
2022/02/25 07:25:22;;;;;;;;;;;;;;;;;;5059840;28;19966;-77
2022/02/25 07:27:47;;;;;;;;;;;;;;;;;;5055348;28;20283;-78
2022/02/25 07:30:14;;;;;;;;;;;;;;;;;;5055192;28;19917;-77
2022/02/25 07:32:39;;;;;;;;;;;;;;;;;;5055151;28;19916;-74
2022/02/25 07:35:05;;;;;;;;;;;;;;;;;;5057717;28;20057;-77
2022/02/25 07:37:31;;;;;;;;;;;;;;;;;;5064881;28;19929;-77
2022/02/25 07:39:57;;;;;;;;;;;;;;;;;;5073100;28;20007;-76
2022/02/25 07:42:22;;;;;;;;;;;;;;;;;;5068924;28;19920;-77
2022/02/25 07:44:48;;;;;;;;;;;;;;;;;;5074862;28;19920;-76
2022/02/25 07:47:14;;;;;;;;;;;;;;;;;;5068893;28;19920;-77
2022/02/25 07:49:39;;;;;;;;;;;;;;;;;;5070401;28;19921;-76
2022/02/25 07:52:05;;;;;;;;;;;;;;;;;;5063621;28;19924;-77
2022/02/25 07:54:32;;;;;;;;;;;;;;;;;;5072824;28;20467;-77
2022/02/25 07:56:58;;;;;;;;;;;;;;;;;;5072852;28;19920;-77
2022/02/25 07:59:23;;;;;;;;;;;;;;;;;;5074533;28;19923;-77
2022/02/25 08:01:49;;;;;;;;;;;;;;;;;;5069820;28;20269;-77
2022/02/25 08:04:14;;;;;;;;;;;;;;;;;;5074346;28;19923;-77
2022/02/25 08:06:42;;;;;;;;;;;;;;;;;;5068590;28;19920;-77
2022/02/25 08:09:09;;;;;;;;;;;;;;;;;;5073842;28;19943;-78
2022/02/25 08:11:35;;;;;;;;;;;;;;;;;;5074186;28;19921;-77
2022/02/25 08:14:00;;;;;;;;;;;;;;;;;;5074257;28;19917;-78
2022/02/25 08:16:26;;;;;;;;;;;;;;;;;;5074166;28;19959;-78
2022/02/25 08:18:51;;;;;;;;;;;;;;;;;;5074336;28;19975;-77
2022/02/25 08:21:17;;;;;;;;;;;;;;;;;;5074377;28;19917;-77
2022/02/25 08:23:43;;;;;;;;;;;;;;;;;;5074205;28;19916;-76
2022/02/25 08:26:08;;;;;;;;;;;;;;;;;;5070858;28;19920;-76
2022/02/25 08:28:34;;;;;;;;;;;;;;;;;;5043029;28;19927;-76
2022/02/25 08:30:59;;;;;;;;;;;;;;;;;;5059888;28;19926;-76
2022/02/25 08:33:25;;;;;;;;;;;;;;;;;;5064597;28;19942;-76
2022/02/25 08:35:51;;;;;;;;;;;;;;;;;;5061240;28;19932;-76
2022/02/25 08:38:17;;;;;;;;;;;;;;;;;;5069267;28;19917;-77
2022/02/25 08:40:43;;;;;;;;;;;;;;;;;;5054289;28;19920;-76
2022/02/25 08:43:08;;;;;;;;;;;;;;;;;;5074173;28;19924;-76
2022/02/25 08:45:34;;;;;;;;;;;;;;;;;;5061883;28;19925;-76
2022/02/25 08:47:59;;;;;;;;;;;;;;;;;;5054503;28;19955;-76
2022/02/25 08:50:25;;;;;;;;;;;;;;;;;;5055502;28;19998;-76
2022/02/25 08:52:51;;;;;;;;;;;;;;;;;;5066479;28;20367;-76
2022/02/25 08:55:18;;;;;;;;;;;;;;;;;;5074075;28;20019;-78
2022/02/25 08:57:43;;;;;;;;;;;;;;;;;;5073407;28;20002;-77
2022/02/25 09:00:20;;;;;;;;;;;;;;;;;;5071083;28;19993;-77
2022/02/25 09:02:47;;;;;;;;;;;;;;;;;;5062415;28;20054;-77
2022/02/25 09:05:13;;;;;;;;;;;;;;;;;;5063974;28;19931;-77
2022/02/25 09:07:38;;;;;;;;;;;;;;;;;;5067019;28;19921;-77
2022/02/25 09:10:05;;;;;;;;;;;;;;;;;;5070737;28;19924;-76
2022/02/25 09:12:30;;;;;;;;;;;;;;;;;;5073566;28;19927;-77
2022/02/25 09:14:56;;;;;;;;;;;;;;;;;;5071551;28;19920;-77
2022/02/25 09:17:21;;;;;;;;;;;;;;;;;;5073638;28;19928;-78
2022/02/25 09:19:48;;;;;;;;;;;;;;;;;;5077264;28;20451;-76
2022/02/25 09:22:14;;;;;;;;;;;;;;;;;;5071096;28;19921;-77
2022/02/25 09:24:39;;;;;;;;;;;;;;;;;;5058857;28;20324;-76
2022/02/25 09:27:05;;;;;;;;;;;;;;;;;;5066977;28;20023;-76
2022/02/25 09:29:30;;;;;;;;;;;;;;;;;;5080125;28;20410;-77
2022/02/25 09:31:56;;;;;;;;;;;;;;;;;;5080121;28;19939;-77
2022/02/25 09:34:21;;;;;;;;;;;;;;;;;;5079998;28;20347;-76
2022/02/25 09:36:47;;;;;;;;;;;;;;;;;;5077721;28;20356;-78
2022/02/25 09:39:13;;;;;;;;;;;;;;;;;;5077820;28;20384;-76
2022/02/25 09:41:39;;;;;;;;;;;;;;;;;;5059236;28;19973;-77
2022/02/25 09:44:05;;;;;;;;;;;;;;;;;;5078564;28;19921;-77
2022/02/25 09:46:31;;;;;;;;;;;;;;;;;;5078508;28;19925;-77
2022/02/25 09:48:57;;;;;;;;;;;;;;;;;;5078663;28;20376;-78
2022/02/25 09:51:23;;;;;;;;;;;;;;;;;;5074196;28;19962;-78
2022/02/25 09:53:48;;;;;;;;;;;;;;;;;;5078603;28;20348;-79
2022/02/25 09:56:14;;;;;;;;;;;;;;;;;;5075645;28;19924;-78
2022/02/25 09:58:39;;;;;;;;;;;;;;;;;;5060638;28;19926;-78
2022/02/25 10:01:05;;;;;;;;;;;;;;;;;;5078379;28;19916;-77
2022/02/25 10:03:33;;;;;;;;;;;;;;;;;;5078635;28;19920;-82
2022/02/25 10:06:05;;;;;;;;;;;;;;;;;;5079239;28;19922;-80
2022/02/25 10:08:31;;;;;;;;;;;;;;;;;;5079244;28;19925;-79
2022/02/25 10:10:57;;;;;;;;;;;;;;;;;;5079021;28;19989;-78
2022/02/25 10:13:24;;;;;;;;;;;;;;;;;;5071721;28;19920;-77
2022/02/25 10:15:50;;;;;;;;;;;;;;;;;;5078167;28;20308;-77
2022/02/25 10:18:17;;;;;;;;;;;;;;;;;;5078813;28;19934;-76
2022/02/25 10:20:43;;;;;;;;;;;;;;;;;;5072493;28;19924;-77
2022/02/25 10:23:38;;;;;;;;;;;;;;;;;;5064488;28;19974;-76
2022/02/25 10:26:14;;;;;;;;;;;;;;;;;;5055358;28;19969;-79
2022/02/25 10:28:44;;;;;;;;;;;;;;;;;;5055274;28;19924;-78
2022/02/25 10:31:23;;;;;;;;;;;;;;;;;;5067976;28;20396;-78
2022/02/25 10:34:03;;;;;;;;;;;;;;;;;;5073747;28;19920;-77
2022/02/25 10:36:40;;;;;;;;;;;;;;;;;;5055949;28;19917;-78
2022/02/25 10:39:06;;;;;;;;;;;;;;;;;;5070667;28;19920;-78
2022/02/25 10:41:31;;;;;;;;;;;;;;;;;;5053600;28;19924;-77
2022/02/25 10:43:57;;;;;;;;;;;;;;;;;;5075359;28;19927;-76
2022/02/25 10:46:23;;;;;;;;;;;;;;;;;;5074623;28;19920;-76
2022/02/25 10:48:48;;;;;;;;;;;;;;;;;;5075972;28;19963;-77
2022/02/25 10:51:20;;;;;;;;;;;;;;;;;;5075691;28;19968;-76
2022/02/25 10:53:50;;;;;;;;;;;;;;;;;;5076090;28;19939;-78
2022/02/25 10:56:16;;;;;;;;;;;;;;;;;;5068157;28;20443;-77
2022/02/25 10:58:44;;;;;;;;;;;;;;;;;;5064766;28;19920;-77
2022/02/25 11:01:13;;;;;;;;;;;;;;;;;;5059360;28;20384;-79
2022/02/25 11:03:42;;;;;;;;;;;;;;;;;;5055475;28;19921;-78
2022/02/25 11:06:08;;;;;;;;;;;;;;;;;;5067440;28;19920;-78
2022/02/25 11:08:34;;;;;;;;;;;;;;;;;;5074316;28;20360;-77
2022/02/25 11:11:00;;;;;;;;;;;;;;;;;;5073751;28;19927;-76
2022/02/25 11:13:26;;;;;;;;;;;;;;;;;;5074119;28;19924;-77
2022/02/25 11:15:53;;;;;;;;;;;;;;;;;;5074257;28;19921;-77
2022/02/25 11:18:19;;;;;;;;;;;;;;;;;;5074172;28;19916;-76
2022/02/25 11:20:45;;;;;;;;;;;;;;;;;;5074488;28;20304;-76
2022/02/25 11:23:12;;;;;;;;;;;;;;;;;;5074258;28;19977;-76
2022/02/25 11:25:39;;;;;;;;;;;;;;;;;;5075389;28;19914;-77
2022/02/25 11:28:05;;;;;;;;;;;;;;;;;;5075326;28;20011;-79
2022/02/25 11:30:56;;;;;;;;;;;;;;;;;;5075111;28;19927;-78
2022/02/25 11:33:23;;;;;;;;;;;;;;;;;;5070415;28;20283;-77
2022/02/25 11:35:48;;;;;;;;;;;;;;;;;;5075128;28;19917;-76
2022/02/25 11:38:14;;;;;;;;;;;;;;;;;;5074540;28;20023;-77
2022/02/25 11:40:47;;;;;;;;;;;;;;;;;;5075242;28;20281;-77
2022/02/25 11:43:13;;;;;;;;;;;;;;;;;;5075122;28;19939;-77
2022/02/25 11:45:49;;;;;;;;;;;;;;;;;;5074861;28;19916;-76
2022/02/25 11:48:22;;;;;;;;;;;;;;;;;;5068623;28;19966;-77
2022/02/25 11:50:53;;;;;;;;;;;;;;;;;;5074876;28;19962;-77
2022/02/25 11:53:20;;;;;;;;;;;;;;;;;;5074761;28;19970;-78
2022/02/25 11:55:45;;;;;;;;;;;;;;;;;;5074771;28;19917;-77
2022/02/25 11:58:29;;;;;;;;;;;;;;;;;;5074680;28;19955;-77
2022/02/25 12:01:05;;;;;;;;;;;;;;;;;;5074616;28;19923;-77
2022/02/25 12:03:32;;;;;;;;;;;;;;;;;;5074576;28;19970;-77
2022/02/25 12:05:58;;;;;;;;;;;;;;;;;;5068735;28;19921;-77
2022/02/25 12:08:24;;;;;;;;;;;;;;;;;;5074438;28;19924;-76
2022/02/25 12:10:49;;;;;;;;;;;;;;;;;;5074284;28;19944;-77
2022/02/25 12:13:23;;;;;;;;;;;;;;;;;;5074569;28;20368;-77
2022/02/25 12:15:49;;;;;;;;;;;;;;;;;;5074244;28;19923;-77
2022/02/25 12:18:16;;;;;;;;;;;;;;;;;;5074208;28;19917;-77
2022/02/25 12:20:59;;;;;;;;;;;;;;;;;;5074262;28;19917;-77
2022/02/25 12:23:38;;;;;;;;;;;;;;;;;;5074150;28;20369;-76
2022/02/25 12:26:04;;;;;;;;;;;;;;;;;;5074212;28;20402;-76
2022/02/25 12:28:33;;;;;;;;;;;;;;;;;;5074049;28;20384;-76
2022/02/25 12:30:58;;;;;;;;;;;;;;;;;;5060695;28;19917;-77
2022/02/25 12:33:31;;;;;;;;;;;;;;;;;;5054330;28;20016;-77
2022/02/25 12:35:57;;;;;;;;;;;;;;;;;;5054025;28;19962;-77
2022/02/25 12:38:24;;;;;;;;;;;;;;;;;;5036244;28;20011;-77
2022/02/25 12:40:51;;;;;;;;;;;;;;;;;;5053989;28;19916;-76
2022/02/25 12:43:17;;;;;;;;;;;;;;;;;;5053874;28;19917;-76
2022/02/25 12:45:43;;;;;;;;;;;;;;;;;;5053953;28;19916;-74
2022/02/25 12:48:08;;;;;;;;;;;;;;;;;;5053474;28;19920;-77
2022/02/25 12:50:40;;;;;;;;;;;;;;;;;;5053167;28;20019;-77
2022/02/25 12:53:06;;;;;;;;;;;;;;;;;;5053815;28;19938;-77
2022/02/25 12:55:32;;;;;;;;;;;;;;;;;;5053658;28;20467;-77
2022/02/25 12:57:57;;;;;;;;;;;;;;;;;;5053694;28;19917;-76
2022/02/25 13:00:22;;;;;;;;;;;;;;;;;;5053593;28;19959;-76
2022/02/25 13:02:53;;;;;;;;;;;;;;;;;;5053665;28;19970;-75
2022/02/25 13:05:19;;;;;;;;;;;;;;;;;;5054165;28;20292;-76
2022/02/25 13:07:53;;;;;;;;;;;;;;;;;;5053621;28;19916;-77
2022/02/25 13:10:19;;;;;;;;;;;;;;;;;;5053285;28;19936;-77
2022/02/25 13:12:45;;;;;;;;;;;;;;;;;;5053621;28;20300;-77
2022/02/25 13:15:10;;;;;;;;;;;;;;;;;;5053567;28;19931;-77
2022/02/25 13:17:35;;;;;;;;;;;;;;;;;;5053415;28;19917;-74
2022/02/25 13:20:03;;;;;;;;;;;;;;;;;;5053558;28;19966;-74
2022/02/25 13:22:33;;;;;;;;;;;;;;;;;;5053439;28;19938;-75
2022/02/25 13:25:01;;;;;;;;;;;;;;;;;;5053333;28;19917;-75
2022/02/25 13:27:33;;;;;;;;;;;;;;;;;;5053504;28;19959;-75
2022/02/25 13:29:58;;;;;;;;;;;;;;;;;;5035470;28;19960;-76
2022/02/25 13:32:27;;;;;;;;;;;;;;;;;;5053221;28;19952;-76
2022/02/25 13:34:54;;;;;;;;;;;;;;;;;;5035514;28;19917;-75
2022/02/25 13:37:19;;;;;;;;;;;;;;;;;;5053284;28;19917;-76
2022/02/25 13:39:45;;;;;;;;;;;;;;;;;;5053338;28;20003;-76
2022/02/25 13:42:10;;;;;;;;;;;;;;;;;;5053271;28;19991;-75
2022/02/25 13:44:37;;;;;;;;;;;;;;;;;;5053194;28;19916;-79
2022/02/25 13:52:32;;;;;;;;;;;;;;;;;;5053392;28;20338;-77
2022/02/25 13:55:02;;;;;;;;;;;;;;;;;;5054486;28;19958;-75
2022/02/25 13:57:32;;;;;;;;;;;;;;;;;;5067205;28;19920;-77
2022/02/25 13:59:58;;;;;;;;;;;;;;;;;;5069488;28;19931;-78
2022/02/25 14:02:26;;;;;;;;;;;;;;;;;;5047395;28;20387;-77
2022/02/25 14:05:17;;;;;;;;;;;;;;;;;;5057055;28;19944;-78
2022/02/25 14:07:47;;;;;;;;;;;;;;;;;;5052666;28;19913;-79
2022/02/25 14:10:21;;;;;;;;;;;;;;;;;;5075677;28;19920;-77
2022/02/25 14:12:47;;;;;;;;;;;;;;;;;;5076481;28;19921;-76
2022/02/25 14:15:13;;;;;;;;;;;;;;;;;;5076675;28;20273;-76
2022/02/25 14:17:39;;;;;;;;;;;;;;;;;;5075653;28;19917;-79
2022/02/25 14:20:19;;;;;;;;;;;;;;;;;;5073798;28;19935;-79
2022/02/25 14:22:46;;;;;;;;;;;;;;;;;;5076520;28;20015;-79
2022/02/25 14:25:15;;;;;;;;;;;;;;;;;;5076311;28;19921;-80
2022/02/25 14:27:53;;;;;;;;;;;;;;;;;;5075350;28;19916;-76
2022/02/25 14:30:20;;;;;;;;;;;;;;;;;;5068303;28;19972;-77
2022/02/25 14:32:52;;;;;;;;;;;;;;;;;;5064693;28;19921;-77
2022/02/25 14:35:19;;;;;;;;;;;;;;;;;;5062997;28;19994;-84
2022/02/25 14:37:45;;;;;;;;;;;;;;;;;;5061723;28;19966;-80
2022/02/25 14:40:10;;;;;;;;;;;;;;;;;;5062627;28;19921;-84
2022/02/25 14:42:36;;;;;;;;;;;;;;;;;;5072939;28;20323;-76
2022/02/25 14:45:02;;;;;;;;;;;;;;;;;;5076137;28;19973;-83
2022/02/25 14:47:28;;;;;;;;;;;;;;;;;;5076464;28;19921;-84
2022/02/25 14:49:55;;;;;;;;;;;;;;;;;;5072508;28;20444;-89
2022/02/25 14:52:20;;;;;;;;;;;;;;;;;;5043217;28;19927;-83
2022/02/25 14:54:46;;;;;;;;;;;;;;;;;;5060917;28;19920;-76
2022/02/25 14:57:12;;;;;;;;;;;;;;;;;;5067409;28;19921;-76
2022/02/25 14:59:38;;;;;;;;;;;;;;;;;;5054777;28;20708;-81
2022/02/25 15:02:05;;;;;;;;;;;;;;;;;;5068062;28;19936;-80
2022/02/25 15:04:30;;;;;;;;;;;;;;;;;;5065844;28;19936;-83
2022/02/25 15:06:56;;;;;;;;;;;;;;;;;;5065640;28;19921;-79
2022/02/25 15:09:21;;;;;;;;;;;;;;;;;;5068131;28;19924;-78
2022/02/25 15:11:47;;;;;;;;;;;;;;;;;;5057896;28;19920;-78
2022/02/25 15:14:17;;;;;;;;;;;;;;;;;;5064096;28;19920;-83
2022/02/25 15:16:44;;;;;;;;;;;;;;;;;;5059922;28;19974;-78
2022/02/25 15:19:11;;;;;;;;;;;;;;;;;;5046623;28;19917;-78
2022/02/25 15:21:38;;;;;;;;;;;;;;;;;;5055762;28;19913;-77
2022/02/25 15:24:03;;;;;;;;;;;;;;;;;;5049209;28;19924;-78
2022/02/25 15:26:30;;;;;;;;;;;;;;;;;;5075030;28;19924;-76
2022/02/25 15:28:55;;;;;;;;;;;;;;;;;;5074953;28;19913;-75
2022/02/25 15:31:21;;;;;;;;;;;;;;;;;;5075179;28;20000;-77
2022/02/25 15:33:46;;;;;;;;;;;;;;;;;;5075180;28;19912;-76
2022/02/25 15:36:11;;;;;;;;;;;;;;;;;;5057139;28;19924;-77
2022/02/25 15:38:37;;;;;;;;;;;;;;;;;;5075133;28;19921;-76
2022/02/25 15:41:02;;;;;;;;;;;;;;;;;;5074958;28;19989;-76
2022/02/25 15:43:28;;;;;;;;;;;;;;;;;;5060898;28;19921;-77
2022/02/25 15:45:53;;;;;;;;;;;;;;;;;;5073270;28;19916;-77
2022/02/25 15:48:19;;;;;;;;;;;;;;;;;;5074899;28;20015;-77
2022/02/25 15:50:44;;;;;;;;;;;;;;;;;;5075071;28;20015;-75
2022/02/25 15:53:10;;;;;;;;;;;;;;;;;;5074682;28;19917;-76
2022/02/25 15:55:35;;;;;;;;;;;;;;;;;;5062211;28;20019;-76
2022/02/25 15:58:01;;;;;;;;;;;;;;;;;;5054666;28;19967;-76
2022/02/25 16:00:26;;;;;;;;;;;;;;;;;;5071144;28;20359;-78
2022/02/25 16:02:52;;;;;;;;;;;;;;;;;;5074520;28;20008;-78
2022/02/25 16:05:17;;;;;;;;;;;;;;;;;;5074607;28;19917;-78
2022/02/25 16:07:43;;;;;;;;;;;;;;;;;;5073800;28;19920;-76
2022/02/25 16:10:08;;;;;;;;;;;;;;;;;;5073941;28;20019;-76
2022/02/25 16:12:34;;;;;;;;;;;;;;;;;;5074146;28;19928;-77
2022/02/25 16:14:59;;;;;;;;;;;;;;;;;;5072988;28;19917;-76
2022/02/25 16:17:26;;;;;;;;;;;;;;;;;;5074154;28;19916;-76
2022/02/25 16:19:52;;;;;;;;;;;;;;;;;;5074028;28;20011;-80
2022/02/25 16:22:17;;;;;;;;;;;;;;;;;;5066459;28;19970;-78
2022/02/25 16:24:43;;;;;;;;;;;;;;;;;;5051978;28;19921;-76
2022/02/25 16:27:08;;;;;;;;;;;;;;;;;;5053680;28;19975;-76
2022/02/25 16:29:34;;;;;;;;;;;;;;;;;;5056597;28;19920;-76
2022/02/25 16:31:59;;;;;;;;;;;;;;;;;;5057970;28;20380;-75
2022/02/25 16:34:25;;;;;;;;;;;;;;;;;;5056003;28;19917;-76
2022/02/25 16:36:50;;;;;;;;;;;;;;;;;;5066263;28;20360;-76
2022/02/25 16:39:16;;;;;;;;;;;;;;;;;;5062882;28;20008;-76
2022/02/25 16:41:42;;;;;;;;;;;;;;;;;;5067440;28;20019;-77
2022/02/25 16:44:07;;;;;;;;;;;;;;;;;;5073905;28;20364;-76
2022/02/25 16:46:32;;;;;;;;;;;;;;;;;;5073855;28;19920;-75
2022/02/25 16:48:58;;;;;;;;;;;;;;;;;;5073952;28;19917;-76
2022/02/25 16:51:24;;;;;;;;;;;;;;;;;;5067311;28;19966;-76